createdAt,value
2024-03-03T00:01:24.008Z,8.39
2024-03-03T00:04:00.301Z,8.40
2024-03-03T00:06:35.982Z,8.41
2024-03-03T00:09:12.417Z,8.42
2024-03-03T00:11:47.730Z,8.42
2024-03-03T00:14:23.362Z,8.41
2024-03-03T00:16:59.420Z,8.38
2024-03-03T00:19:34.448Z,8.37
2024-03-03T00:22:10.083Z,8.37
2024-03-03T00:24:45.306Z,8.38
2024-03-03T00:27:20.687Z,8.38
2024-03-03T00:29:54.330Z,8.36
2024-03-03T00:32:29.309Z,8.34
2024-03-03T00:35:02.485Z,8.34
2024-03-03T00:37:37.716Z,8.34
2024-03-03T00:40:15.801Z,8.33
2024-03-03T00:42:53.781Z,8.33
2024-03-03T00:45:31.869Z,8.32
2024-03-03T00:48:05.661Z,8.31
2024-03-03T00:50:40.512Z,8.32
2024-03-03T00:53:15.539Z,8.32
2024-03-03T00:55:52.558Z,8.32
2024-03-03T00:58:25.426Z,8.33
2024-03-03T01:00:59.239Z,8.31
2024-03-03T01:03:33.740Z,8.30
2024-03-03T01:06:08.529Z,8.29
2024-03-03T01:08:43.646Z,8.28
2024-03-03T01:11:17.309Z,8.27
2024-03-03T01:13:50.777Z,8.27
2024-03-03T01:16:24.475Z,8.26
2024-03-03T01:18:58.704Z,8.24
2024-03-03T01:21:36.493Z,8.24
2024-03-03T01:24:12.370Z,8.23
2024-03-03T01:26:47.523Z,8.22
2024-03-03T01:29:21.985Z,8.23
2024-03-03T01:31:54.936Z,8.24
2024-03-03T01:34:30.159Z,8.24
2024-03-03T01:37:06.340Z,8.23
2024-03-03T01:39:41.152Z,8.25
2024-03-03T01:42:14.834Z,8.25
2024-03-03T01:44:49.647Z,8.24
2024-03-03T01:47:24.258Z,8.25
2024-03-03T01:50:00.208Z,8.26
2024-03-03T01:52:35.047Z,8.25
2024-03-03T01:55:11.283Z,8.24
2024-03-03T01:57:44.971Z,8.24
2024-03-03T02:00:24.862Z,8.24
2024-03-03T02:03:01.079Z,8.22
2024-03-03T02:05:38.025Z,8.21
2024-03-03T02:08:12.220Z,8.20
2024-03-03T02:10:46.917Z,8.21
2024-03-03T02:13:21.946Z,8.21
2024-03-03T02:15:59.065Z,8.20
2024-03-03T02:18:33.617Z,8.20
2024-03-03T02:21:07.270Z,8.18
2024-03-03T02:23:42.380Z,8.19
2024-03-03T02:26:16.892Z,8.17
2024-03-03T02:28:51.580Z,8.17
2024-03-03T02:31:28.298Z,8.16
2024-03-03T02:34:01.920Z,8.14
2024-03-03T02:36:38.852Z,8.14
2024-03-03T02:39:13.547Z,8.12
2024-03-03T02:41:45.494Z,8.11
2024-03-03T02:44:20.186Z,8.10
2024-03-03T02:46:54.336Z,8.10
2024-03-03T02:49:27.873Z,8.08
2024-03-03T02:52:02.597Z,8.07
2024-03-03T02:54:39.961Z,8.04
2024-03-03T02:57:14.550Z,8.02
2024-03-03T02:59:51.068Z,8.01
2024-03-03T03:02:25.167Z,8.01
2024-03-03T03:04:59.594Z,8.02
2024-03-03T03:07:33.761Z,8.02
2024-03-03T03:10:11.085Z,8.02
2024-03-03T03:12:44.949Z,8.03
2024-03-03T03:15:18.791Z,8.03
2024-03-03T03:17:53.743Z,8.02
2024-03-03T03:20:27.706Z,7.99
2024-03-03T03:23:03.773Z,7.96
2024-03-03T03:25:39.024Z,7.95
2024-03-03T03:28:12.683Z,7.91
2024-03-03T03:30:47.820Z,7.90
2024-03-03T03:33:22.807Z,7.92
2024-03-03T03:35:56.781Z,7.92
2024-03-03T03:38:30.478Z,7.92
2024-03-03T03:41:06.240Z,7.92
2024-03-03T03:43:42.928Z,7.92
2024-03-03T03:46:18.198Z,7.92
2024-03-03T03:48:51.078Z,7.89
2024-03-03T03:51:23.477Z,7.87
2024-03-03T03:53:56.612Z,7.86
2024-03-03T03:56:31.582Z,7.86
2024-03-03T03:59:06.045Z,7.85
2024-03-03T04:01:39.808Z,7.84
2024-03-03T04:04:12.916Z,7.84
2024-03-03T04:06:48.384Z,7.83
2024-03-03T04:09:21.664Z,7.82
2024-03-03T04:11:58.424Z,7.79
2024-03-03T04:14:33.414Z,7.77
2024-03-03T04:17:10.514Z,7.76
2024-03-03T04:19:43.896Z,7.75
2024-03-03T04:22:17.029Z,7.76
2024-03-03T04:24:52.303Z,7.75
2024-03-03T04:27:26.751Z,7.74
2024-03-03T04:29:59.475Z,7.74
2024-03-03T04:32:33.155Z,7.73
2024-03-03T04:35:08.006Z,7.72
2024-03-03T04:37:44.807Z,7.72
2024-03-03T04:40:22.364Z,7.72
2024-03-03T04:42:55.899Z,7.71
2024-03-03T04:45:30.504Z,7.70
2024-03-03T04:48:04.324Z,7.67
2024-03-03T04:50:39.271Z,7.67
2024-03-03T04:53:15.241Z,7.65
2024-03-03T04:55:55.620Z,7.65
2024-03-03T04:58:31.468Z,7.63
2024-03-03T05:01:06.232Z,7.62
2024-03-03T05:03:40.653Z,7.63
2024-03-03T05:06:19.586Z,7.62
2024-03-03T05:08:52.690Z,7.62
2024-03-03T05:11:27.460Z,7.60
2024-03-03T05:14:00.855Z,7.58
2024-03-03T05:16:36.203Z,7.56
2024-03-03T05:19:11.163Z,7.55
2024-03-03T05:21:45.344Z,7.53
2024-03-03T05:24:24.115Z,7.51
2024-03-03T05:26:56.281Z,7.51
2024-03-03T05:29:34.914Z,7.49
2024-03-03T05:32:09.419Z,7.48
2024-03-03T05:34:44.576Z,7.46
2024-03-03T05:37:21.291Z,7.44
2024-03-03T05:39:54.990Z,7.43
2024-03-03T05:42:29.232Z,7.42
2024-03-03T05:45:07.484Z,7.41
2024-03-03T05:47:40.075Z,7.42
2024-03-03T05:50:16.850Z,7.43
2024-03-03T05:52:50.553Z,7.44
2024-03-03T05:55:24.411Z,7.44
2024-03-03T05:58:00.080Z,7.43
2024-03-03T06:00:33.442Z,7.42
2024-03-03T06:03:09.486Z,7.42
2024-03-03T06:05:43.946Z,7.43
2024-03-03T06:08:18.088Z,7.42
2024-03-03T06:10:53.017Z,7.43
2024-03-03T06:13:27.532Z,7.44
2024-03-03T06:16:04.644Z,7.45
2024-03-03T06:18:39.149Z,7.46
2024-03-03T06:21:13.285Z,7.46
2024-03-03T06:23:47.788Z,7.47
2024-03-03T06:26:21.292Z,7.48
2024-03-03T06:28:56.023Z,7.48
2024-03-03T06:31:30.122Z,7.48
2024-03-03T06:34:07.381Z,7.49
2024-03-03T06:36:41.021Z,7.50
2024-03-03T06:39:17.572Z,7.50
2024-03-03T06:41:53.152Z,7.52
2024-03-03T06:44:30.937Z,7.54
2024-03-03T06:47:06.390Z,7.57
2024-03-03T06:49:40.745Z,7.57
2024-03-03T06:52:15.116Z,7.60
2024-03-03T06:54:48.274Z,7.64
2024-03-03T06:57:22.691Z,7.65
2024-03-03T06:59:56.546Z,7.66
2024-03-03T07:02:45.390Z,7.67
2024-03-03T07:05:18.480Z,7.66
2024-03-03T07:07:53.329Z,7.67
2024-03-03T07:10:28.046Z,7.70
2024-03-03T07:13:01.494Z,7.72
2024-03-03T07:15:34.852Z,7.75
2024-03-03T07:18:09.818Z,7.76
2024-03-03T07:20:43.022Z,7.81
2024-03-03T07:23:17.460Z,7.83
2024-03-03T07:25:54.008Z,7.85
2024-03-03T07:28:27.931Z,7.87
2024-03-03T07:31:02.805Z,7.89
2024-03-03T07:33:36.868Z,7.92
2024-03-03T07:36:11.409Z,7.96
2024-03-03T07:38:45.791Z,7.99
2024-03-03T07:41:20.592Z,8.02
2024-03-03T07:43:59.107Z,8.05
2024-03-03T07:46:32.302Z,8.10
2024-03-03T07:49:09.792Z,8.15
2024-03-03T07:51:53.100Z,8.20
2024-03-03T07:54:25.629Z,8.24
2024-03-03T07:57:01.565Z,8.28
2024-03-03T07:59:36.026Z,8.33
2024-03-03T08:02:10.222Z,8.39
2024-03-03T08:04:43.941Z,8.43
2024-03-03T08:07:16.686Z,8.47
2024-03-03T08:09:51.177Z,8.52
2024-03-03T08:12:25.665Z,8.57
2024-03-03T08:15:00.683Z,8.61
2024-03-03T08:17:35.012Z,8.65
2024-03-03T08:20:12.072Z,8.70
2024-03-03T08:22:47.465Z,8.75
2024-03-03T08:25:25.319Z,8.81
2024-03-03T08:28:04.323Z,8.87
2024-03-03T08:30:37.858Z,8.92
2024-03-03T08:33:11.725Z,8.98
2024-03-03T08:35:45.393Z,9.03
2024-03-03T08:38:20.971Z,9.08
2024-03-03T08:40:54.777Z,9.14
2024-03-03T08:43:30.852Z,9.21
2024-03-03T08:46:04.889Z,9.27
2024-03-03T08:48:39.644Z,9.31
2024-03-03T08:51:14.947Z,9.37
2024-03-03T08:53:49.135Z,9.42
2024-03-03T08:56:23.755Z,9.48
2024-03-03T08:58:57.250Z,9.53
2024-03-03T09:01:30.475Z,9.59
2024-03-03T09:04:05.170Z,9.64
2024-03-03T09:06:39.300Z,9.70
2024-03-03T09:09:12.599Z,9.76
2024-03-03T09:11:48.525Z,9.82
2024-03-03T09:14:22.574Z,9.87
2024-03-03T09:16:56.134Z,9.95
2024-03-03T09:19:30.861Z,10.01
2024-03-03T09:22:08.713Z,10.08
2024-03-03T09:24:45.220Z,10.15
2024-03-03T09:27:18.877Z,10.21
2024-03-03T09:29:53.706Z,10.25
2024-03-03T09:32:29.002Z,10.30
2024-03-03T09:35:03.552Z,10.36
2024-03-03T09:37:40.520Z,10.40
2024-03-03T09:40:18.893Z,10.43
2024-03-03T09:42:57.883Z,10.48
2024-03-03T09:45:34.984Z,10.54
2024-03-03T09:48:12.265Z,10.58
2024-03-03T09:50:47.098Z,10.64
2024-03-03T09:53:22.864Z,10.69
2024-03-03T09:55:58.194Z,10.74
2024-03-03T09:58:34.561Z,10.78
2024-03-03T10:01:11.017Z,10.84
2024-03-03T10:03:45.911Z,10.88
2024-03-03T10:06:23.561Z,10.95
2024-03-03T10:09:02.765Z,11.00
2024-03-03T10:11:39.314Z,11.05
2024-03-03T10:14:14.345Z,11.09
2024-03-03T10:16:50.605Z,11.14
2024-03-03T10:19:33.943Z,11.20
2024-03-03T10:22:13.052Z,11.26
2024-03-03T10:24:48.713Z,11.31
2024-03-03T10:27:23.791Z,11.35
2024-03-03T10:30:10.978Z,11.40
2024-03-03T10:32:47.519Z,11.44
2024-03-03T10:35:21.183Z,11.47
2024-03-03T10:38:03.080Z,11.51
2024-03-03T10:40:40.088Z,11.56
2024-03-03T10:43:27.876Z,11.61
2024-03-03T10:46:01.277Z,11.65
2024-03-03T10:48:36.725Z,11.70
2024-03-03T10:51:12.431Z,11.73
2024-03-03T10:53:53.754Z,11.77
2024-03-03T10:56:27.115Z,11.82
2024-03-03T10:59:05.637Z,11.87
2024-03-03T11:01:45.008Z,11.91
2024-03-03T11:04:20.554Z,11.94
2024-03-03T11:07:07.059Z,11.96
2024-03-03T11:09:41.112Z,11.98
2024-03-03T11:12:19.787Z,11.98
2024-03-03T11:14:58.142Z,11.98
2024-03-03T11:17:35.533Z,12.01
2024-03-03T11:20:15.961Z,12.03
2024-03-03T11:23:11.283Z,12.04
2024-03-03T11:25:56.081Z,12.04
2024-03-03T11:28:34.479Z,12.04
2024-03-03T11:31:09.395Z,12.05
2024-03-03T11:33:43.788Z,12.08
2024-03-03T11:36:17.536Z,12.11
2024-03-03T11:38:53.371Z,12.15
2024-03-03T11:41:26.665Z,12.18
2024-03-03T11:44:00.328Z,12.22
2024-03-03T11:46:55.016Z,12.26
2024-03-03T11:49:29.095Z,12.28
2024-03-03T11:52:04.816Z,12.32
2024-03-03T11:54:42.963Z,12.36
2024-03-03T11:57:21.876Z,12.41
2024-03-03T12:00:12.810Z,12.45
2024-03-03T12:02:48.556Z,12.48
2024-03-03T12:05:23.850Z,12.47
2024-03-03T12:07:58.289Z,12.45
2024-03-03T12:10:33.698Z,12.45
2024-03-03T12:13:08.798Z,12.45
2024-03-03T12:15:43.875Z,12.46
2024-03-03T12:18:17.820Z,12.44
2024-03-03T12:20:51.043Z,12.44
2024-03-03T12:23:25.357Z,12.48
2024-03-03T12:26:04.558Z,12.49
2024-03-03T12:28:37.373Z,12.50
2024-03-03T12:31:10.962Z,12.51
2024-03-03T12:33:45.728Z,12.53
2024-03-03T12:36:20.185Z,12.54
2024-03-03T12:38:55.370Z,12.53
2024-03-03T12:41:29.863Z,12.52
2024-03-03T12:44:04.121Z,12.51
2024-03-03T12:46:41.495Z,12.53
2024-03-03T12:49:16.114Z,12.54
2024-03-03T12:51:52.348Z,12.56
2024-03-03T12:54:26.901Z,12.54
2024-03-03T12:57:02.767Z,12.54
2024-03-03T12:59:39.170Z,12.54
2024-03-03T13:02:19.265Z,12.56
2024-03-03T13:04:58.844Z,12.58
2024-03-03T13:07:33.373Z,12.58
2024-03-03T13:10:19.421Z,12.59
2024-03-03T13:12:55.912Z,12.57
2024-03-03T13:15:35.267Z,12.58
2024-03-03T13:18:17.365Z,12.59
2024-03-03T13:20:52.589Z,12.59
2024-03-03T13:23:27.735Z,12.59
2024-03-03T13:26:02.008Z,12.59
2024-03-03T13:28:36.612Z,12.60
2024-03-03T13:31:11.272Z,12.61
2024-03-03T13:33:47.142Z,12.60
2024-03-03T13:36:21.692Z,12.57
2024-03-03T13:38:59.824Z,12.55
2024-03-03T13:41:36.517Z,12.54
2024-03-03T13:44:11.203Z,12.53
2024-03-03T13:46:48.386Z,12.55
2024-03-03T13:49:24.737Z,12.55
2024-03-03T13:51:59.383Z,12.54
2024-03-03T13:54:35.986Z,12.52
2024-03-03T13:57:10.768Z,12.50
2024-03-03T13:59:44.803Z,12.50
2024-03-03T14:02:18.421Z,12.49
2024-03-03T14:04:53.538Z,12.50
2024-03-03T14:07:29.908Z,12.51
2024-03-03T14:10:06.332Z,12.51
2024-03-03T14:12:43.760Z,12.47
2024-03-03T14:15:17.829Z,12.46
2024-03-03T14:17:51.519Z,12.45
2024-03-03T14:20:27.582Z,12.48
2024-03-03T14:23:01.183Z,12.50
2024-03-03T14:25:34.578Z,12.51
2024-03-03T14:28:13.163Z,12.51
2024-03-03T14:30:48.567Z,12.51
2024-03-03T14:33:23.705Z,12.53
2024-03-03T14:35:56.846Z,12.53
2024-03-03T14:38:30.872Z,12.53
2024-03-03T14:41:06.324Z,12.52
2024-03-03T14:43:40.365Z,12.48
2024-03-03T14:46:16.110Z,12.47
2024-03-03T14:48:53.618Z,12.47
2024-03-03T14:51:29.801Z,12.47
2024-03-03T14:54:03.145Z,12.46
2024-03-03T14:56:37.771Z,12.46
2024-03-03T14:59:11.633Z,12.45
2024-03-03T15:01:44.796Z,12.45
2024-03-03T15:04:18.834Z,12.43
2024-03-03T15:06:53.052Z,12.43
2024-03-03T15:09:27.121Z,12.42
2024-03-03T15:12:02.147Z,12.41
2024-03-03T15:14:35.671Z,12.41
2024-03-03T15:17:21.922Z,12.42
2024-03-03T15:19:59.084Z,12.41
2024-03-03T15:23:03.439Z,12.42
2024-03-03T15:25:37.819Z,12.40
2024-03-03T15:28:11.874Z,12.43
2024-03-03T15:30:45.936Z,12.44
2024-03-03T15:33:23.328Z,12.44
2024-03-03T15:36:01.766Z,12.44
2024-03-03T15:38:34.666Z,12.43
2024-03-03T15:41:09.793Z,12.42
2024-03-03T15:43:47.024Z,12.39
2024-03-03T15:46:21.715Z,12.36
2024-03-03T15:48:56.446Z,12.33
2024-03-03T15:51:30.063Z,12.29
2024-03-03T15:54:05.752Z,12.25
2024-03-03T15:56:39.643Z,12.24
2024-03-03T15:59:13.866Z,12.22
2024-03-03T16:01:47.755Z,12.18
2024-03-03T16:04:21.693Z,12.16
2024-03-03T16:06:56.296Z,12.09
2024-03-03T16:09:35.119Z,12.05
2024-03-03T16:12:09.213Z,12.00
2024-03-03T16:14:43.495Z,11.96
2024-03-03T16:17:18.120Z,11.90
2024-03-03T16:19:55.461Z,11.85
2024-03-03T16:22:28.540Z,11.79
2024-03-03T16:25:05.108Z,11.76
2024-03-03T16:27:39.957Z,11.73
2024-03-03T16:30:14.512Z,11.72
2024-03-03T16:32:49.149Z,11.67
2024-03-03T16:35:22.772Z,11.63
2024-03-03T16:37:58.084Z,11.58
2024-03-03T16:40:31.940Z,11.54
2024-03-03T16:43:08.186Z,11.50
2024-03-03T16:45:44.576Z,11.45
2024-03-03T16:48:20.296Z,11.42
2024-03-03T16:50:53.120Z,11.38
2024-03-03T16:53:29.960Z,11.34
2024-03-03T16:56:05.964Z,11.30
2024-03-03T16:58:43.074Z,11.24
2024-03-03T17:01:17.611Z,11.21
2024-03-03T17:03:52.409Z,11.18
2024-03-03T17:06:28.328Z,11.12
2024-03-03T17:09:01.075Z,11.05
2024-03-03T17:11:34.330Z,10.99
2024-03-03T17:14:06.696Z,10.96
2024-03-03T17:16:41.250Z,10.91
2024-03-03T17:19:14.686Z,10.86
2024-03-03T17:21:48.762Z,10.81
2024-03-03T17:24:24.486Z,10.76
2024-03-03T17:26:57.656Z,10.74
2024-03-03T17:29:30.938Z,10.71
2024-03-03T17:32:05.210Z,10.66
2024-03-03T17:34:38.843Z,10.61
2024-03-03T17:37:13.387Z,10.58
2024-03-03T17:39:49.033Z,10.55
2024-03-03T17:42:23.437Z,10.48
2024-03-03T17:44:56.689Z,10.46
2024-03-03T17:47:30.492Z,10.44
2024-03-03T17:50:05.816Z,10.40
2024-03-03T17:52:41.330Z,10.36
2024-03-03T17:55:17.600Z,10.31
2024-03-03T17:57:51.289Z,10.27
2024-03-03T18:00:25.654Z,10.24
2024-03-03T18:02:58.433Z,10.20
2024-03-03T18:05:33.020Z,10.15
2024-03-03T18:08:10.623Z,10.12
2024-03-03T18:10:48.254Z,10.10
2024-03-03T18:13:22.374Z,10.05
2024-03-03T18:15:57.940Z,10.01
2024-03-03T18:18:32.729Z,9.97
2024-03-03T18:21:09.063Z,9.94
2024-03-03T18:23:42.939Z,9.92
2024-03-03T18:26:18.196Z,9.89
2024-03-03T18:28:52.066Z,9.87
2024-03-03T18:31:24.875Z,9.84
2024-03-03T18:33:59.445Z,9.83
2024-03-03T18:36:32.700Z,9.79
2024-03-03T18:39:09.564Z,9.79
2024-03-03T18:41:42.149Z,9.77
2024-03-03T18:44:14.522Z,9.74
2024-03-03T18:46:49.257Z,9.71
2024-03-03T18:49:22.229Z,9.70
2024-03-03T18:51:56.876Z,9.67
2024-03-03T18:54:30.462Z,9.65
2024-03-03T18:57:07.457Z,9.63
2024-03-03T18:59:41.512Z,9.60
2024-03-03T19:02:15.745Z,9.56
2024-03-03T19:04:50.283Z,9.51
2024-03-03T19:07:23.392Z,9.47
2024-03-03T19:09:59.485Z,9.43
2024-03-03T19:12:35.077Z,9.41
2024-03-03T19:15:14.021Z,9.38
2024-03-03T19:17:47.072Z,9.37
2024-03-03T19:20:22.641Z,9.35
2024-03-03T19:23:00.178Z,9.31
2024-03-03T19:25:37.586Z,9.28
2024-03-03T19:28:11.048Z,9.24
2024-03-03T19:30:45.678Z,9.19
2024-03-03T19:33:22.155Z,9.17
2024-03-03T19:35:56.699Z,9.14
2024-03-03T19:38:31.993Z,9.09
2024-03-03T19:41:07.367Z,9.07
2024-03-03T19:43:40.245Z,9.04
2024-03-03T19:46:14.474Z,8.99
2024-03-03T19:48:48.023Z,8.97
2024-03-03T19:51:24.138Z,8.93
2024-03-03T19:53:57.742Z,8.89
2024-03-03T19:56:33.800Z,8.87
2024-03-03T19:59:08.416Z,8.86
2024-03-03T20:01:43.148Z,8.85
2024-03-03T20:04:16.095Z,8.82
2024-03-03T20:06:49.845Z,8.79
2024-03-03T20:09:23.879Z,8.80
2024-03-03T20:11:58.892Z,8.79
2024-03-03T20:14:34.405Z,8.77
2024-03-03T20:17:07.612Z,8.76
2024-03-03T20:19:47.733Z,8.75
2024-03-03T20:22:23.457Z,8.75
2024-03-03T20:24:58.282Z,8.73
2024-03-03T20:27:31.666Z,8.71
2024-03-03T20:30:22.365Z,8.68
2024-03-03T20:32:55.953Z,8.65
2024-03-03T20:35:29.433Z,8.64
2024-03-03T20:38:03.029Z,8.62
2024-03-03T20:40:35.737Z,8.60
2024-03-03T20:43:09.792Z,8.58
2024-03-03T20:45:42.828Z,8.54
2024-03-03T20:48:17.614Z,8.53
2024-03-03T20:50:50.380Z,8.51
2024-03-03T20:53:25.050Z,8.47
2024-03-03T20:55:57.991Z,8.45
2024-03-03T20:58:31.794Z,8.39
2024-03-03T21:01:09.341Z,8.39
2024-03-03T21:03:42.581Z,8.37
2024-03-03T21:06:18.824Z,8.31
2024-03-03T21:08:53.919Z,8.30
2024-03-03T21:11:31.179Z,8.30
2024-03-03T21:14:03.678Z,8.29
2024-03-03T21:16:37.461Z,8.25
2024-03-03T21:19:12.380Z,8.21
2024-03-03T21:21:47.902Z,8.20
2024-03-03T21:24:20.780Z,8.17
2024-03-03T21:26:55.224Z,8.13
2024-03-03T21:29:29.510Z,8.09
2024-03-03T21:32:03.863Z,8.07
2024-03-03T21:34:41.770Z,8.04
2024-03-03T21:37:15.260Z,7.99
2024-03-03T21:39:49.117Z,7.96
2024-03-03T21:42:22.763Z,7.95
2024-03-03T21:44:57.523Z,7.92
2024-03-03T21:47:32.223Z,7.90
2024-03-03T21:50:06.995Z,7.89
2024-03-03T21:52:40.881Z,7.83
2024-03-03T21:55:15.165Z,7.80
2024-03-03T21:57:54.072Z,7.77
2024-03-03T22:00:27.938Z,7.75
2024-03-03T22:03:01.959Z,7.73
2024-03-03T22:05:36.201Z,7.70
2024-03-03T22:08:11.011Z,7.66
2024-03-03T22:10:46.675Z,7.64
2024-03-03T22:13:20.462Z,7.63
2024-03-03T22:15:54.611Z,7.61
2024-03-03T22:18:27.845Z,7.59
2024-03-03T22:21:04.836Z,7.57
2024-03-03T22:23:38.002Z,7.56
2024-03-03T22:26:10.980Z,7.53
2024-03-03T22:28:44.633Z,7.52
2024-03-03T22:31:18.330Z,7.54
2024-03-03T22:33:52.033Z,7.52
2024-03-03T22:36:26.262Z,7.50
2024-03-03T22:38:58.995Z,7.48
2024-03-03T22:41:31.425Z,7.46
2024-03-03T22:44:06.661Z,7.46
2024-03-03T22:46:41.992Z,7.45
2024-03-03T22:49:17.174Z,7.46
2024-03-03T22:51:51.847Z,7.42
2024-03-03T22:54:34.840Z,7.36
2024-03-03T22:57:07.589Z,7.29
2024-03-03T22:59:42.994Z,7.25
2024-03-03T23:02:17.684Z,7.23
2024-03-03T23:04:55.885Z,7.22
2024-03-03T23:07:31.788Z,7.19
2024-03-03T23:10:06.667Z,7.16
2024-03-03T23:12:40.614Z,7.15
2024-03-03T23:15:14.961Z,7.12
2024-03-03T23:17:49.328Z,7.10
2024-03-03T23:20:23.457Z,7.08
2024-03-03T23:22:57.334Z,7.03
2024-03-03T23:25:31.215Z,6.97
2024-03-03T23:28:08.151Z,6.93
2024-03-03T23:30:42.505Z,6.89
2024-03-03T23:33:18.383Z,6.86
2024-03-03T23:35:52.159Z,6.83
2024-03-03T23:38:27.540Z,6.82
2024-03-03T23:41:02.865Z,6.81
2024-03-03T23:43:40.187Z,6.79
2024-03-03T23:46:14.230Z,6.74
2024-03-03T23:48:48.342Z,6.70
2024-03-03T23:51:21.677Z,6.70
2024-03-03T23:53:57.418Z,6.69
2024-03-03T23:56:34.568Z,6.69
2024-03-03T23:59:07.586Z,6.68
